createdAt,value
2018-08-12T00:02:12.237Z,15.50
2018-08-12T00:04:40.367Z,15.40
2018-08-12T00:07:08.449Z,15.40
2018-08-12T00:09:36.542Z,15.30
2018-08-12T00:12:05.469Z,15.30
2018-08-12T00:14:33.716Z,15.30
2018-08-12T00:17:01.800Z,15.40
2018-08-12T00:19:29.877Z,15.40
2018-08-12T00:21:57.937Z,15.40
2018-08-12T00:24:25.992Z,15.40
2018-08-12T00:26:54.102Z,15.40
2018-08-12T00:29:22.112Z,15.40
2018-08-12T00:31:50.213Z,15.40
2018-08-12T00:34:18.378Z,15.40
2018-08-12T00:36:46.468Z,15.50
2018-08-12T00:39:14.541Z,15.40
2018-08-12T00:41:42.571Z,15.40
2018-08-12T00:44:10.622Z,15.40
2018-08-12T00:46:38.689Z,15.40
2018-08-12T00:49:06.884Z,15.40
2018-08-12T00:51:35.046Z,15.40
2018-08-12T00:54:03.187Z,15.30
2018-08-12T00:56:31.253Z,15.30
2018-08-12T00:58:59.412Z,15.30
2018-08-12T01:01:27.482Z,15.30
2018-08-12T01:03:55.642Z,15.30
2018-08-12T01:06:23.683Z,15.20
2018-08-12T01:08:51.828Z,15.20
2018-08-12T01:11:19.864Z,15.20
2018-08-12T01:13:47.963Z,15.10
2018-08-12T01:16:16.018Z,15.10
2018-08-12T01:18:44.053Z,15.00
2018-08-12T01:21:12.186Z,15.00
2018-08-12T01:23:40.259Z,14.90
2018-08-12T01:26:08.467Z,14.90
2018-08-12T01:28:36.496Z,14.80
2018-08-12T01:31:04.603Z,14.80
2018-08-12T01:33:32.733Z,14.80
2018-08-12T01:36:00.811Z,14.70
2018-08-12T01:38:28.884Z,14.70
2018-08-12T01:40:56.951Z,14.60
2018-08-12T01:43:25.073Z,14.60
2018-08-12T01:45:53.179Z,14.60
2018-08-12T01:48:21.233Z,14.50
2018-08-12T01:50:49.347Z,14.50
2018-08-12T01:53:17.403Z,14.50
2018-08-12T01:55:45.517Z,14.50
2018-08-12T01:58:13.604Z,14.50
2018-08-12T02:00:41.676Z,14.40
2018-08-12T02:03:09.784Z,14.40
2018-08-12T02:05:37.896Z,14.40
2018-08-12T02:08:06.073Z,14.30
2018-08-12T02:10:34.150Z,14.30
2018-08-12T02:13:02.310Z,14.30
2018-08-12T02:15:30.620Z,14.30
2018-08-12T02:17:58.652Z,14.20
2018-08-12T02:20:26.728Z,14.20
2018-08-12T02:22:54.756Z,14.20
2018-08-12T02:25:22.966Z,14.10
2018-08-12T02:27:51.032Z,14.00
2018-08-12T02:30:19.116Z,14.00
2018-08-12T02:32:47.182Z,14.00
2018-08-12T02:35:15.249Z,13.90
2018-08-12T02:37:43.451Z,13.90
2018-08-12T02:40:11.541Z,13.90
2018-08-12T02:42:39.667Z,13.90
2018-08-12T02:45:10.104Z,13.80
2018-08-12T02:47:38.114Z,13.80
2018-08-12T02:50:06.289Z,13.80
2018-08-12T02:52:34.427Z,13.80
2018-08-12T02:55:02.510Z,13.80
2018-08-12T02:57:30.732Z,13.80
2018-08-12T02:59:58.777Z,13.70
2018-08-12T03:02:26.888Z,13.70
2018-08-12T03:04:54.938Z,13.70
2018-08-12T03:07:22.985Z,13.60
2018-08-12T03:09:51.026Z,13.60
2018-08-12T03:12:19.137Z,13.60
2018-08-12T03:14:47.306Z,13.60
2018-08-12T03:17:15.398Z,13.60
2018-08-12T03:19:43.442Z,13.60
2018-08-12T03:22:11.539Z,13.60
2018-08-12T03:24:39.656Z,13.50
2018-08-12T03:27:07.712Z,13.60
2018-08-12T03:29:35.737Z,13.50
2018-08-12T03:32:03.876Z,13.50
2018-08-12T03:34:32.132Z,13.50
2018-08-12T03:37:00.192Z,13.60
2018-08-12T03:39:28.277Z,13.50
2018-08-12T03:41:56.332Z,13.50
2018-08-12T03:44:24.409Z,13.50
2018-08-12T03:46:52.425Z,13.50
2018-08-12T03:49:20.528Z,13.50
2018-08-12T03:51:48.570Z,13.50
2018-08-12T03:54:16.653Z,13.50
2018-08-12T03:56:45.559Z,13.40
2018-08-12T03:59:13.633Z,13.40
2018-08-12T04:01:41.666Z,13.40
2018-08-12T04:04:09.801Z,13.40
2018-08-12T04:06:37.858Z,13.40
2018-08-12T04:09:07.234Z,13.30
2018-08-12T04:11:35.287Z,13.30
2018-08-12T04:14:03.701Z,13.30
2018-08-12T04:16:31.805Z,13.30
2018-08-12T04:18:59.914Z,13.30
2018-08-12T04:21:27.992Z,13.30
2018-08-12T04:23:55.999Z,13.40
2018-08-12T04:26:24.089Z,13.40
2018-08-12T04:28:52.112Z,13.50
2018-08-12T04:31:20.176Z,13.50
2018-08-12T04:33:48.218Z,13.50
2018-08-12T04:36:16.294Z,13.50
2018-08-12T04:38:44.340Z,13.50
2018-08-12T04:41:12.387Z,13.60
2018-08-12T04:43:40.472Z,13.60
2018-08-12T04:46:08.588Z,13.70
2018-08-12T04:48:36.645Z,13.70
2018-08-12T04:51:04.748Z,13.80
2018-08-12T04:53:32.956Z,13.80
2018-08-12T04:56:01.084Z,13.90
2018-08-12T04:58:29.113Z,14.00
2018-08-12T05:00:57.165Z,14.20
2018-08-12T05:03:25.210Z,14.50
2018-08-12T05:05:53.245Z,15.00
2018-08-12T05:08:21.316Z,15.50
2018-08-12T05:10:49.337Z,16.00
2018-08-12T05:13:17.388Z,16.40
2018-08-12T05:15:45.435Z,16.50
2018-08-12T05:18:13.463Z,16.70
2018-08-12T05:20:41.666Z,16.80
2018-08-12T05:23:09.729Z,17.00
2018-08-12T05:25:37.888Z,17.10
2018-08-12T05:28:06.168Z,17.20
2018-08-12T05:30:34.255Z,17.40
2018-08-12T05:33:02.388Z,17.50
2018-08-12T05:35:30.547Z,17.60
2018-08-12T05:37:58.631Z,17.80
2018-08-12T05:40:26.693Z,17.90
2018-08-12T05:42:54.717Z,18.10
2018-08-12T05:45:22.907Z,18.30
2018-08-12T05:47:50.992Z,18.50
2018-08-12T05:50:19.200Z,18.70
2018-08-12T05:52:47.280Z,18.80
2018-08-12T05:55:15.483Z,19.00
2018-08-12T05:57:43.615Z,19.20
2018-08-12T06:00:13.090Z,19.50
2018-08-12T06:02:41.279Z,19.80
2018-08-12T06:05:09.351Z,20.10
2018-08-12T06:07:37.426Z,19.90
2018-08-12T06:10:07.057Z,19.70
2018-08-12T06:12:35.157Z,19.50
2018-08-12T06:15:04.263Z,19.10
2018-08-12T06:17:32.575Z,18.90
2018-08-12T06:20:00.643Z,18.70
2018-08-12T06:22:28.790Z,18.60
2018-08-12T06:24:56.887Z,18.40
2018-08-12T06:27:24.961Z,18.20
2018-08-12T06:29:53.028Z,18.10
2018-08-12T06:32:21.146Z,18.10
2018-08-12T06:34:49.210Z,18.00
2018-08-12T06:37:17.257Z,18.00
2018-08-12T06:39:45.522Z,18.10
2018-08-12T06:42:13.540Z,18.20
2018-08-12T06:44:42.716Z,18.20
2018-08-12T06:47:10.804Z,18.20
2018-08-12T06:49:38.892Z,18.20
2018-08-12T06:52:07.322Z,18.30
2018-08-12T06:54:35.451Z,18.30
2018-08-12T06:57:03.605Z,18.40
2018-08-12T06:59:31.821Z,18.40
2018-08-12T07:01:59.937Z,18.40
2018-08-12T07:04:28.023Z,18.40
2018-08-12T07:06:56.220Z,18.40
2018-08-12T07:09:24.288Z,18.40
2018-08-12T07:11:52.350Z,18.40
2018-08-12T07:14:20.490Z,18.50
2018-08-12T07:16:48.551Z,18.60
2018-08-12T07:19:16.644Z,18.70
2018-08-12T07:21:44.764Z,18.80
2018-08-12T07:24:12.848Z,18.90
2018-08-12T07:26:40.936Z,19.00
2018-08-12T07:29:09.080Z,19.00
2018-08-12T07:31:37.149Z,19.10
2018-08-12T07:34:05.608Z,19.10
2018-08-12T07:36:33.709Z,19.20
2018-08-12T07:39:01.873Z,19.30
2018-08-12T07:41:29.956Z,19.40
2018-08-12T07:43:58.042Z,19.60
2018-08-12T07:46:26.173Z,19.70
2018-08-12T07:48:54.307Z,19.90
2018-08-12T07:51:22.541Z,20.00
2018-08-12T07:53:50.717Z,20.10
2018-08-12T07:56:18.842Z,20.20
2018-08-12T07:58:46.915Z,20.30
2018-08-12T08:01:15.197Z,20.30
2018-08-12T08:03:43.205Z,20.40
2018-08-12T08:06:11.322Z,20.50
2018-08-12T08:08:39.808Z,20.60
2018-08-12T08:11:07.860Z,20.70
2018-08-12T08:13:35.939Z,20.90
2018-08-12T08:16:04.040Z,21.00
2018-08-12T08:18:32.256Z,21.00
2018-08-12T08:21:00.302Z,21.10
2018-08-12T08:23:28.343Z,21.20
2018-08-12T08:25:56.492Z,21.30
2018-08-12T08:28:24.520Z,21.50
2018-08-12T08:30:52.649Z,21.60
2018-08-12T08:33:20.739Z,21.70
2018-08-12T08:35:48.824Z,21.80
2018-08-12T08:38:16.893Z,21.80
2018-08-12T08:40:45.020Z,21.90
2018-08-12T08:43:13.176Z,22.00
2018-08-12T08:45:41.328Z,22.10
2018-08-12T08:48:09.412Z,22.20
2018-08-12T08:50:37.633Z,22.40
2018-08-12T08:53:05.984Z,22.50
2018-08-12T08:55:34.096Z,22.60
2018-08-12T08:58:02.264Z,22.70
2018-08-12T09:00:30.380Z,22.80
2018-08-12T09:02:58.491Z,22.80
2018-08-12T09:05:26.512Z,22.90
2018-08-12T09:07:54.752Z,23.10
2018-08-12T09:10:22.814Z,23.20
2018-08-12T09:12:50.916Z,23.20
2018-08-12T09:15:19.093Z,23.30
2018-08-12T09:17:47.196Z,23.40
2018-08-12T09:20:15.322Z,23.50
2018-08-12T09:22:43.404Z,23.60
2018-08-12T09:25:12.077Z,23.70
2018-08-12T09:27:40.248Z,23.80
2018-08-12T09:30:11.307Z,23.90
2018-08-12T09:32:39.452Z,24.00
2018-08-12T09:35:07.625Z,24.10
2018-08-12T09:37:35.716Z,24.20
2018-08-12T09:40:05.861Z,24.30
2018-08-12T09:42:33.953Z,24.30
2018-08-12T09:45:02.083Z,24.40
2018-08-12T09:47:30.157Z,24.30
2018-08-12T09:49:58.275Z,24.40
2018-08-12T09:52:26.305Z,24.50
2018-08-12T09:54:54.394Z,24.60
2018-08-12T09:57:22.536Z,24.80
2018-08-12T09:59:50.734Z,24.90
2018-08-12T10:02:19.788Z,24.90
2018-08-12T10:04:48.195Z,25.00
2018-08-12T10:07:16.304Z,25.00
2018-08-12T10:09:44.368Z,25.00
2018-08-12T10:12:12.429Z,25.10
2018-08-12T10:14:40.492Z,25.10
2018-08-12T10:17:08.540Z,25.20
2018-08-12T10:19:36.905Z,25.20
2018-08-12T10:22:05.001Z,25.30
2018-08-12T10:24:33.135Z,25.30
2018-08-12T10:27:01.286Z,25.40
2018-08-12T10:29:29.402Z,25.50
2018-08-12T10:31:57.495Z,25.50
2018-08-12T10:34:25.577Z,25.50
2018-08-12T10:36:53.705Z,25.50
2018-08-12T10:39:21.804Z,25.60
2018-08-12T10:41:49.849Z,25.70
2018-08-12T10:44:17.987Z,25.70
2018-08-12T10:46:46.137Z,25.80
2018-08-12T10:49:14.245Z,25.80
2018-08-12T10:51:42.302Z,25.80
2018-08-12T10:54:10.477Z,25.90
2018-08-12T10:56:38.629Z,25.90
2018-08-12T10:59:06.701Z,25.90
2018-08-12T11:01:34.794Z,26.00
2018-08-12T11:04:02.868Z,26.00
2018-08-12T11:06:31.028Z,26.00
2018-08-12T11:08:59.078Z,26.10
2018-08-12T11:11:27.122Z,26.10
2018-08-12T11:13:56.072Z,26.20
2018-08-12T11:16:24.113Z,26.30
2018-08-12T11:18:52.213Z,26.40
2018-08-12T11:21:20.288Z,26.50
2018-08-12T11:23:48.333Z,26.50
2018-08-12T11:26:16.367Z,26.60
2018-08-12T11:28:44.400Z,26.60
2018-08-12T11:31:12.617Z,26.60
2018-08-12T11:33:40.745Z,26.70
2018-08-12T11:36:08.786Z,26.80
2018-08-12T11:38:36.963Z,26.90
2018-08-12T11:41:05.089Z,26.90
2018-08-12T11:43:33.197Z,27.00
2018-08-12T11:46:01.445Z,27.10
2018-08-12T11:48:29.703Z,27.10
2018-08-12T11:50:57.919Z,27.20
2018-08-12T11:53:25.996Z,27.20
2018-08-12T11:55:54.096Z,27.30
2018-08-12T11:58:22.154Z,27.10
2018-08-12T12:00:51.251Z,27.20
2018-08-12T12:03:19.374Z,27.10
2018-08-12T12:05:47.466Z,27.10
2018-08-12T12:08:15.586Z,27.20
2018-08-12T12:10:43.648Z,27.20
2018-08-12T12:13:11.746Z,27.30
2018-08-12T12:15:39.862Z,27.40
2018-08-12T12:18:07.982Z,27.50
2018-08-12T12:20:36.182Z,27.60
2018-08-12T12:23:04.166Z,27.70
2018-08-12T12:25:32.314Z,27.80
2018-08-12T12:28:00.368Z,27.90
2018-08-12T12:30:28.505Z,28.00
2018-08-12T12:32:56.597Z,28.10
2018-08-12T12:35:24.754Z,28.10
2018-08-12T12:37:52.743Z,28.20
2018-08-12T12:40:20.833Z,28.30
2018-08-12T12:42:48.981Z,28.40
2018-08-12T12:45:17.094Z,28.40
2018-08-12T12:47:45.246Z,28.40
2018-08-12T12:50:17.836Z,28.40
2018-08-12T12:52:45.825Z,28.50
2018-08-12T12:55:13.981Z,28.50
2018-08-12T12:57:42.028Z,28.50
2018-08-12T13:00:12.389Z,28.50
2018-08-12T13:02:40.453Z,28.60
2018-08-12T13:05:10.449Z,28.70
2018-08-12T13:07:38.555Z,28.80
2018-08-12T13:10:07.581Z,28.80
2018-08-12T13:12:35.862Z,28.70
2018-08-12T13:15:05.082Z,28.60
2018-08-12T13:17:33.144Z,28.60
2018-08-12T13:20:01.229Z,28.50
2018-08-12T13:22:29.373Z,28.50
2018-08-12T13:24:58.477Z,28.60
2018-08-12T13:27:27.468Z,28.70
2018-08-12T13:29:55.613Z,28.80
2018-08-12T13:32:23.788Z,28.90
2018-08-12T13:34:51.866Z,28.90
2018-08-12T13:37:19.960Z,28.90
2018-08-12T13:39:48.048Z,28.90
2018-08-12T13:42:16.136Z,29.00
2018-08-12T13:44:44.229Z,29.10
2018-08-12T13:47:12.460Z,29.20
2018-08-12T13:49:40.549Z,29.30
2018-08-12T13:52:08.645Z,29.30
2018-08-12T13:54:36.732Z,29.40
2018-08-12T13:59:32.703Z,29.40
2018-08-12T14:02:00.841Z,29.40
2018-08-12T14:04:29.302Z,29.40
2018-08-12T14:06:57.413Z,29.40
2018-08-12T14:09:25.452Z,29.40
2018-08-12T14:11:53.580Z,29.40
2018-08-12T14:14:21.719Z,29.50
2018-08-12T14:16:49.917Z,29.50
2018-08-12T14:19:18.022Z,29.50
2018-08-12T14:21:46.139Z,29.60
2018-08-12T14:24:14.265Z,29.60
2018-08-12T14:26:42.329Z,29.60
2018-08-12T14:29:10.452Z,29.60
2018-08-12T14:31:38.541Z,29.50
2018-08-12T14:34:06.740Z,29.60
2018-08-12T14:36:34.856Z,29.60
2018-08-12T14:39:04.101Z,29.60
2018-08-12T14:41:32.243Z,29.60
2018-08-12T14:44:00.272Z,29.60
2018-08-12T14:46:28.376Z,29.60
2018-08-12T14:48:56.380Z,29.60
2018-08-12T14:51:24.405Z,29.50
2018-08-12T14:53:52.539Z,29.40
2018-08-12T14:56:20.674Z,29.20
2018-08-12T14:58:48.987Z,29.30
2018-08-12T15:01:17.232Z,29.30
2018-08-12T15:03:45.269Z,29.20
2018-08-12T15:06:13.359Z,29.20
2018-08-12T15:08:41.717Z,29.20
2018-08-12T15:11:09.867Z,29.20
2018-08-12T15:13:38.052Z,29.10
2018-08-12T15:16:06.683Z,29.20
2018-08-12T15:18:34.790Z,29.10
2018-08-12T15:21:02.833Z,29.20
2018-08-12T15:23:30.941Z,29.30
2018-08-12T15:25:59.110Z,29.40
2018-08-12T15:28:29.127Z,29.60
2018-08-12T15:30:57.180Z,29.70
2018-08-12T15:33:25.260Z,29.90
2018-08-12T15:35:53.361Z,30.00
2018-08-12T15:38:21.444Z,30.10
2018-08-12T15:40:49.676Z,30.10
2018-08-12T15:43:17.725Z,30.10
2018-08-12T15:45:45.846Z,30.10
2018-08-12T15:51:21.406Z,30.10
2018-08-12T15:53:50.237Z,30.10
2018-08-12T15:56:18.293Z,30.00
2018-08-12T15:58:46.458Z,30.10
2018-08-12T16:01:14.496Z,30.10
2018-08-12T16:03:42.629Z,30.10
2018-08-12T16:06:10.780Z,30.20
2018-08-12T16:08:38.804Z,30.20
2018-08-12T16:11:07.555Z,30.20
2018-08-12T16:13:37.472Z,30.20
2018-08-12T16:16:05.949Z,30.30
2018-08-12T16:18:33.974Z,30.30
2018-08-12T16:21:02.067Z,30.30
2018-08-12T16:23:30.162Z,30.20
2018-08-12T16:25:58.305Z,30.10
2018-08-12T16:28:26.417Z,30.10
2018-08-12T16:30:54.803Z,30.00
2018-08-12T16:33:24.493Z,30.00
2018-08-12T16:36:11.945Z,30.00
2018-08-12T16:38:40.633Z,30.00
2018-08-12T16:41:21.654Z,29.90
2018-08-12T16:43:53.677Z,29.90
2018-08-12T16:46:38.032Z,29.80
2018-08-12T16:49:11.844Z,29.80
2018-08-12T16:51:41.102Z,29.80
2018-08-12T16:54:30.057Z,29.70
2018-08-12T16:57:07.195Z,29.70
2018-08-12T16:59:36.110Z,29.60
2018-08-12T17:02:25.842Z,29.50
2018-08-12T17:05:11.136Z,29.60
2018-08-12T17:07:48.412Z,29.50
2018-08-12T17:10:16.692Z,29.50
2018-08-12T17:12:46.255Z,29.50
2018-08-12T17:15:15.628Z,29.40
2018-08-12T17:17:44.078Z,29.40
2018-08-12T17:20:14.502Z,29.40
2018-08-12T17:22:42.726Z,29.30
2018-08-12T17:25:20.439Z,29.30
2018-08-12T17:27:49.091Z,29.20
2018-08-12T17:30:19.523Z,29.10
2018-08-12T17:32:47.675Z,29.10
2018-08-12T17:35:15.869Z,29.10
2018-08-12T17:37:44.077Z,29.00
2018-08-12T17:40:12.484Z,28.90
2018-08-12T17:42:41.279Z,28.80
2018-08-12T17:45:11.000Z,28.70
2018-08-12T17:47:39.426Z,28.60
2018-08-12T17:50:07.633Z,28.60
2018-08-12T17:52:35.689Z,28.50
2018-08-12T17:55:04.628Z,28.40
2018-08-12T17:57:32.730Z,28.40
2018-08-12T18:00:00.977Z,28.30
2018-08-12T18:02:29.109Z,28.20
2018-08-12T18:04:57.197Z,28.20
2018-08-12T18:07:25.373Z,28.10
2018-08-12T18:09:54.103Z,28.00
2018-08-12T18:12:22.241Z,27.90
2018-08-12T18:14:50.401Z,27.90
2018-08-12T18:17:18.444Z,27.80
2018-08-12T18:19:46.489Z,27.70
2018-08-12T18:22:14.596Z,27.70
2018-08-12T18:24:42.686Z,27.60
2018-08-12T18:27:10.805Z,27.60
2018-08-12T18:29:38.853Z,27.50
2018-08-12T18:32:06.921Z,27.50
2018-08-12T18:34:35.121Z,27.40
2018-08-12T18:37:03.174Z,27.40
2018-08-12T18:39:31.304Z,27.30
2018-08-12T18:42:00.058Z,27.20
2018-08-12T18:44:28.587Z,27.10
2018-08-12T18:46:57.276Z,27.00
2018-08-12T18:49:26.422Z,27.00
2018-08-12T18:51:54.480Z,26.90
2018-08-12T18:54:22.574Z,26.90
2018-08-12T18:56:50.641Z,26.80
2018-08-12T18:59:18.712Z,26.70
2018-08-12T19:01:46.792Z,26.60
2018-08-12T19:04:14.908Z,26.50
2018-08-12T19:06:42.936Z,26.40
2018-08-12T19:09:11.033Z,26.40
2018-08-12T19:11:39.121Z,26.30
2018-08-12T19:14:07.365Z,26.20
2018-08-12T19:16:35.525Z,26.20
2018-08-12T19:19:03.632Z,26.10
2018-08-12T19:21:31.704Z,26.00
2018-08-12T19:23:59.798Z,25.90
2018-08-12T19:26:27.843Z,25.90
2018-08-12T19:28:56.041Z,25.80
2018-08-12T19:31:24.145Z,25.70
2018-08-12T19:33:52.326Z,25.70
2018-08-12T19:36:20.548Z,25.60
2018-08-12T19:38:48.651Z,25.50
2018-08-12T19:41:16.955Z,25.50
2018-08-12T19:43:44.993Z,25.40
2018-08-12T19:46:13.188Z,25.30
2018-08-12T19:48:41.242Z,25.20
2018-08-12T19:51:09.288Z,25.10
2018-08-12T19:53:37.356Z,25.00
2018-08-12T19:56:05.612Z,24.90
2018-08-12T19:58:33.697Z,24.80
2018-08-12T20:01:01.836Z,24.80
2018-08-12T20:03:30.012Z,24.70
2018-08-12T20:06:00.077Z,24.60
2018-08-12T20:08:28.198Z,24.60
2018-08-12T20:10:56.244Z,24.50
2018-08-12T20:13:24.387Z,24.40
2018-08-12T20:15:52.468Z,24.30
2018-08-12T20:18:20.546Z,24.20
2018-08-12T20:20:48.689Z,24.10
2018-08-12T20:23:16.904Z,24.10
2018-08-12T20:25:45.000Z,24.00
2018-08-12T20:28:13.206Z,24.00
2018-08-12T20:30:41.334Z,23.80
2018-08-12T20:33:09.438Z,23.70
2018-08-12T20:35:37.577Z,23.60
2018-08-12T20:38:05.830Z,23.50
2018-08-12T20:40:33.941Z,23.50
2018-08-12T20:43:02.003Z,23.40
2018-08-12T20:45:30.523Z,23.40
2018-08-12T20:47:58.622Z,23.30
2018-08-12T20:50:26.677Z,23.30
2018-08-12T20:52:54.752Z,23.30
2018-08-12T20:55:23.290Z,23.20
2018-08-12T20:57:51.325Z,23.20
2018-08-12T21:00:19.389Z,23.20
2018-08-12T21:02:47.430Z,23.10
2018-08-12T21:05:15.609Z,23.10
2018-08-12T21:07:43.728Z,23.10
2018-08-12T21:10:11.841Z,23.00
2018-08-12T21:12:40.011Z,23.00
2018-08-12T21:15:08.392Z,22.90
2018-08-12T21:17:36.633Z,22.80
2018-08-12T21:20:05.257Z,22.70
2018-08-12T21:22:33.381Z,22.70
2018-08-12T21:25:01.417Z,22.60
2018-08-12T21:27:29.467Z,22.60
2018-08-12T21:29:57.500Z,22.50
2018-08-12T21:32:25.570Z,22.50
2018-08-12T21:34:53.596Z,22.40
2018-08-12T21:37:21.964Z,22.40
2018-08-12T21:39:50.043Z,22.30
2018-08-12T21:42:18.095Z,22.30
2018-08-12T21:44:46.786Z,22.20
2018-08-12T21:47:14.844Z,22.20
2018-08-12T21:49:43.015Z,22.10
2018-08-12T21:52:11.243Z,22.10
2018-08-12T21:54:39.447Z,22.00
2018-08-12T21:57:07.481Z,22.00
2018-08-12T21:59:35.540Z,22.00
2018-08-12T22:02:04.100Z,21.90
2018-08-12T22:04:32.941Z,21.80
2018-08-12T22:07:00.974Z,21.70
2018-08-12T22:09:29.023Z,21.70
2018-08-12T22:11:57.179Z,21.60
2018-08-12T22:14:25.277Z,21.50
2018-08-12T22:16:53.347Z,21.50
2018-08-12T22:19:21.416Z,21.40
2018-08-12T22:21:50.028Z,21.30
2018-08-12T22:24:18.375Z,21.30
2018-08-12T22:26:46.449Z,21.20
2018-08-12T22:29:14.655Z,21.20
2018-08-12T22:31:42.755Z,21.20
2018-08-12T22:34:10.879Z,21.20
2018-08-12T22:36:38.984Z,21.20
2018-08-12T22:39:07.649Z,21.10
2018-08-12T22:41:35.732Z,21.10
2018-08-12T22:44:03.857Z,21.10
2018-08-12T22:46:31.960Z,21.10
2018-08-12T22:49:00.042Z,21.00
2018-08-12T22:51:28.207Z,20.90
2018-08-12T22:53:56.267Z,20.90
2018-08-12T22:56:24.324Z,20.80
2018-08-12T22:58:52.395Z,20.80
2018-08-12T23:01:20.764Z,20.70
2018-08-12T23:03:48.869Z,20.70
2018-08-12T23:06:16.915Z,20.70
2018-08-12T23:08:45.368Z,20.60
2018-08-12T23:11:13.429Z,20.60
2018-08-12T23:13:41.522Z,20.50
2018-08-12T23:16:20.820Z,20.50
2018-08-12T23:18:49.368Z,20.50
2018-08-12T23:21:17.761Z,20.40
2018-08-12T23:23:45.878Z,20.40
2018-08-12T23:26:13.941Z,20.50
2018-08-12T23:28:42.173Z,20.40
2018-08-12T23:31:10.537Z,20.40
2018-08-12T23:33:38.587Z,20.40
2018-08-12T23:36:06.872Z,20.40
2018-08-12T23:38:35.089Z,20.30
2018-08-12T23:41:03.341Z,20.30
2018-08-12T23:43:31.469Z,20.30
2018-08-12T23:45:59.565Z,20.20
2018-08-12T23:48:28.470Z,20.20
2018-08-12T23:50:56.656Z,20.20
2018-08-12T23:53:24.750Z,20.20
2018-08-12T23:55:54.178Z,20.20
2018-08-12T23:58:22.239Z,20.30
